Siliana, Tunisia

7:01 PM CET on October 02, 2014 (GMT +0100)
Jendouba | Change Station
CLOSE
Current Station
Airport
Location: Jendouba,
Elevation: 472 ft
Nearby Weather Stations

Elev 472 ft 36.48 °N, 8.80 °E | Updated 1 hour ago

Partly Cloudy
Partly Cloudy
82 °F
Feels Like 87 °F
N
7
Wind Variable Wind from NW

Today
High -- | Low -- °F
--% Chance of Precip.
Yesterday
High -- | Low -- °F
Precip. -- in
6:18 AM 6:05 PM
First Quarter, 61% visible
Pressure 30.06 in
Visibility 6.2 miles
Clouds Scattered Clouds 2000 ft
Few 2300 ft
Heat Index 87 °F
Dew Point 72 °F
Humidity 70%
Rainfall 0.00 in
Snow Depth Not available.
UV 0 out of 12
Pollen Not available.
Air Quality Not available.
Flu Activity Not available.
METAR DTTN 021700Z 32006KT 9999 SCT020 FEW023CB 28/22 Q1018 CB:SE

More Conditions Fewer Conditions

Pressure 30.06 in
Visibility 6.2 miles
Clouds Scattered Clouds 2000 ft
Few 2300 ft
Heat Index 87 °F
Dew Point 72 °F
Humidity 70%
Rainfall 0.00 in
Snow Depth Not available.
UV 0 out of 12
Pollen Not available.
Air Quality Not available.
Flu Activity Not available.
METAR DTTN 021700Z 32006KT 9999 SCT020 FEW023CB 28/22 Q1018 CB:SE

More Conditions Fewer Conditions

10-Day Weather Forecast

Almanac

Astronomy

Oct. 02, 2014 Rise Set
Actual Time 6:18 AM CET 6:05 PM CET
Civil Twilight 5:52 AM CET 6:30 PM CET
Nautical Twilight 5:22 AM CET 7:00 PM CET
Astronomical Twilight 4:52 AM CET 7:30 PM CET
Moon 1:47 PM CET No Moon Set
Length of Visible Light 12h 38m
Length of Day
11h 46m
Tomorrow will be 2m 15s shorter.
First Quarter, 61% of the Moon is Illuminated
Today
First Quarter
Oct 8
Full
Oct 15
Last Quarter
Oct 23
New
Oct 30
First Quarter

Today's Extremes

Country Highs Country Lows

Community

WunderPhotos

Upload Photos

1,758,316 photos uploaded!

WunderBlogs® & News

Nearby

Snow Depth

Not available.

Earthquake Activity

City Distance Mag. Time & Date
No recent earthquake activity has been reported nearby.
Minimum magnitude displayed is 2.5.

Coastal Water Temperatures

Place Temperature
No Stations Reporting

Nearby Weather Stations